sensor_id;sensor_type;location;lat;lon;timestamp;temperature;humidity
971;DHT22;28939;45.540;-122.632;2022-09-13T00:00:16;24.40;98.50
971;DHT22;28939;45.540;-122.632;2022-09-13T00:02:47;24.30;98.50
971;DHT22;28939;45.540;-122.632;2022-09-13T00:05:18;24.30;98.80
971;DHT22;28939;45.540;-122.632;2022-09-13T00:07:48;24.30;98.70
971;DHT22;28939;45.540;-122.632;2022-09-13T00:10:19;24.20;98.70
971;DHT22;28939;45.540;-122.632;2022-09-13T00:12:50;24.20;98.90
971;DHT22;28939;45.540;-122.632;2022-09-13T00:15:23;24.00;98.50
971;DHT22;28939;45.540;-122.632;2022-09-13T00:17:54;24.00;98.60
971;DHT22;28939;45.540;-122.632;2022-09-13T00:20:25;24.00;99.10
971;DHT22;28939;45.540;-122.632;2022-09-13T00:22:56;24.00;99.10
971;DHT22;28939;45.540;-122.632;2022-09-13T00:25:27;24.00;99.70
971;DHT22;28939;45.540;-122.632;2022-09-13T00:27:57;24.10;99.80
971;DHT22;28939;45.540;-122.632;2022-09-13T00:30:30;24.10;99.20
971;DHT22;28939;45.540;-122.632;2022-09-13T00:33:01;24.20;99.40
971;DHT22;28939;45.540;-122.632;2022-09-13T00:35:32;24.40;98.20
971;DHT22;28939;45.540;-122.632;2022-09-13T00:38:03;24.30;98.00
971;DHT22;28939;45.540;-122.632;2022-09-13T00:40:37;24.20;99.30
971;DHT22;28939;45.540;-122.632;2022-09-13T00:43:15;24.10;99.30
971;DHT22;28939;45.540;-122.632;2022-09-13T00:45:48;24.00;99.90
971;DHT22;28939;45.540;-122.632;2022-09-13T00:48:21;24.10;99.70
971;DHT22;28939;45.540;-122.632;2022-09-13T00:50:55;24.20;98.80
971;DHT22;28939;45.540;-122.632;2022-09-13T00:53:27;24.30;99.20
971;DHT22;28939;45.540;-122.632;2022-09-13T00:56:00;24.20;98.90
971;DHT22;28939;45.540;-122.632;2022-09-13T00:58:35;24.20;99.30
971;DHT22;28939;45.540;-122.632;2022-09-13T01:01:12;24.20;99.30
971;DHT22;28939;45.540;-122.632;2022-09-13T01:03:44;24.20;98.70
971;DHT22;28939;45.540;-122.632;2022-09-13T01:06:23;24.20;99.50
971;DHT22;28939;45.540;-122.632;2022-09-13T01:08:57;24.10;99.70
971;DHT22;28939;45.540;-122.632;2022-09-13T01:11:37;24.00;99.90
971;DHT22;28939;45.540;-122.632;2022-09-13T01:14:09;24.10;99.90
971;DHT22;28939;45.540;-122.632;2022-09-13T01:16:41;24.00;99.90
971;DHT22;28939;45.540;-122.632;2022-09-13T01:19:15;24.00;99.50
971;DHT22;28939;45.540;-122.632;2022-09-13T01:25:16;23.90;99.90
971;DHT22;28939;45.540;-122.632;2022-09-13T01:28:07;23.80;99.60
971;DHT22;28939;45.540;-122.632;2022-09-13T01:30:45;23.60;99.90
971;DHT22;28939;45.540;-122.632;2022-09-13T01:33:37;23.50;99.90
971;DHT22;28939;45.540;-122.632;2022-09-13T01:36:24;23.50;99.90
971;DHT22;28939;45.540;-122.632;2022-09-13T01:39:03;23.40;99.90
971;DHT22;28939;45.540;-122.632;2022-09-13T01:41:51;23.30;99.90
971;DHT22;28939;45.540;-122.632;2022-09-13T01:44:38;23.10;99.90
971;DHT22;28939;45.540;-122.632;2022-09-13T01:47:24;23.10;99.90
971;DHT22;28939;45.540;-122.632;2022-09-13T01:50:06;23.00;99.90
971;DHT22;28939;45.540;-122.632;2022-09-13T01:52:46;22.90;99.90
971;DHT22;28939;45.540;-122.632;2022-09-13T01:55:25;22.90;99.90
971;DHT22;28939;45.540;-122.632;2022-09-13T01:58:04;22.80;99.90
971;DHT22;28939;45.540;-122.632;2022-09-13T02:00:40;22.80;99.90
971;DHT22;28939;45.540;-122.632;2022-09-13T02:03:18;22.70;99.90
971;DHT22;28939;45.540;-122.632;2022-09-13T02:05:55;22.60;99.90
971;DHT22;28939;45.540;-122.632;2022-09-13T02:08:33;22.50;99.90
971;DHT22;28939;45.540;-122.632;2022-09-13T02:11:08;22.40;99.90
971;DHT22;28939;45.540;-122.632;2022-09-13T02:13:44;22.40;99.90
971;DHT22;28939;45.540;-122.632;2022-09-13T02:16:20;22.30;99.90
971;DHT22;28939;45.540;-122.632;2022-09-13T02:18:59;22.30;99.90
971;DHT22;28939;45.540;-122.632;2022-09-13T02:21:36;22.20;99.90
971;DHT22;28939;45.540;-122.632;2022-09-13T02:24:11;22.20;99.90
971;DHT22;28939;45.540;-122.632;2022-09-13T02:26:44;22.20;99.90
971;DHT22;28939;45.540;-122.632;2022-09-13T02:29:19;22.20;99.90
971;DHT22;28939;45.540;-122.632;2022-09-13T02:31:55;22.10;99.90
971;DHT22;28939;45.540;-122.632;2022-09-13T02:34:34;22.20;99.90
971;DHT22;28939;45.540;-122.632;2022-09-13T02:37:08;22.30;99.90
971;DHT22;28939;45.540;-122.632;2022-09-13T02:39:44;22.20;99.90
971;DHT22;28939;45.540;-122.632;2022-09-13T02:42:20;22.20;99.90
971;DHT22;28939;45.540;-122.632;2022-09-13T02:44:53;22.10;99.90
971;DHT22;28939;45.540;-122.632;2022-09-13T02:47:34;22.00;99.90
971;DHT22;28939;45.540;-122.632;2022-09-13T02:50:22;21.90;99.90
971;DHT22;28939;45.540;-122.632;2022-09-13T02:53:03;21.80;99.90
971;DHT22;28939;45.540;-122.632;2022-09-13T02:55:41;21.80;99.90
971;DHT22;28939;45.540;-122.632;2022-09-13T02:58:17;21.70;99.90
971;DHT22;28939;45.540;-122.632;2022-09-13T03:00:54;21.60;99.90
971;DHT22;28939;45.540;-122.632;2022-09-13T03:03:25;21.40;99.90
971;DHT22;28939;45.540;-122.632;2022-09-13T03:05:57;21.30;99.90
971;DHT22;28939;45.540;-122.632;2022-09-13T03:08:29;21.20;99.90
971;DHT22;28939;45.540;-122.632;2022-09-13T03:11:07;21.00;99.90
971;DHT22;28939;45.540;-122.632;2022-09-13T03:14:02;20.90;99.90
971;DHT22;28939;45.540;-122.632;2022-09-13T03:16:47;20.80;99.90
971;DHT22;28939;45.540;-122.632;2022-09-13T03:19:47;20.60;99.90
971;DHT22;28939;45.540;-122.632;2022-09-13T03:22:42;20.50;99.90
971;DHT22;28939;45.540;-122.632;2022-09-13T03:25:22;20.40;99.90
971;DHT22;28939;45.540;-122.632;2022-09-13T03:28:05;20.30;99.90
971;DHT22;28939;45.540;-122.632;2022-09-13T03:30:41;20.20;99.90
971;DHT22;28939;45.540;-122.632;2022-09-13T03:33:19;20.10;99.90
971;DHT22;28939;45.540;-122.632;2022-09-13T03:35:58;20.00;99.90
971;DHT22;28939;45.540;-122.632;2022-09-13T03:38:38;20.00;99.90
971;DHT22;28939;45.540;-122.632;2022-09-13T03:41:12;19.90;99.90
971;DHT22;28939;45.540;-122.632;2022-09-13T03:43:48;19.90;99.90
971;DHT22;28939;45.540;-122.632;2022-09-13T03:46:23;19.80;99.90
971;DHT22;28939;45.540;-122.632;2022-09-13T03:48:58;19.80;99.90
971;DHT22;28939;45.540;-122.632;2022-09-13T03:51:30;19.70;99.90
971;DHT22;28939;45.540;-122.632;2022-09-13T03:54:06;19.70;99.90
971;DHT22;28939;45.540;-122.632;2022-09-13T03:56:37;19.60;99.90
971;DHT22;28939;45.540;-122.632;2022-09-13T03:59:08;19.60;99.90
971;DHT22;28939;45.540;-122.632;2022-09-13T04:01:39;19.60;99.90
971;DHT22;28939;45.540;-122.632;2022-09-13T04:04:11;19.50;99.90
971;DHT22;28939;45.540;-122.632;2022-09-13T04:06:44;19.50;99.90
971;DHT22;28939;45.540;-122.632;2022-09-13T04:09:17;19.50;99.90
971;DHT22;28939;45.540;-122.632;2022-09-13T04:11:47;19.50;99.90
971;DHT22;28939;45.540;-122.632;2022-09-13T04:14:18;19.50;99.90
971;DHT22;28939;45.540;-122.632;2022-09-13T04:16:50;19.40;99.90
971;DHT22;28939;45.540;-122.632;2022-09-13T04:19:21;19.40;99.90
971;DHT22;28939;45.540;-122.632;2022-09-13T04:21:53;19.40;99.90
971;DHT22;28939;45.540;-122.632;2022-09-13T04:24:27;19.30;99.90
971;DHT22;28939;45.540;-122.632;2022-09-13T04:26:59;19.30;99.90
971;DHT22;28939;45.540;-122.632;2022-09-13T04:29:30;19.30;99.90
971;DHT22;28939;45.540;-122.632;2022-09-13T04:32:02;19.10;99.90
971;DHT22;28939;45.540;-122.632;2022-09-13T04:34:33;19.00;99.90
971;DHT22;28939;45.540;-122.632;2022-09-13T04:37:04;19.00;99.90
971;DHT22;28939;45.540;-122.632;2022-09-13T04:39:37;19.00;99.90
971;DHT22;28939;45.540;-122.632;2022-09-13T04:42:08;19.00;99.90
971;DHT22;28939;45.540;-122.632;2022-09-13T04:44:39;18.90;99.90
971;DHT22;28939;45.540;-122.632;2022-09-13T04:47:10;18.80;99.90
971;DHT22;28939;45.540;-122.632;2022-09-13T04:49:41;18.90;99.90
971;DHT22;28939;45.540;-122.632;2022-09-13T04:52:12;18.90;99.90
971;DHT22;28939;45.540;-122.632;2022-09-13T04:54:44;19.00;99.90
971;DHT22;28939;45.540;-122.632;2022-09-13T04:57:15;18.90;99.90
971;DHT22;28939;45.540;-122.632;2022-09-13T04:59:46;19.00;99.90
971;DHT22;28939;45.540;-122.632;2022-09-13T05:02:16;19.00;99.90
971;DHT22;28939;45.540;-122.632;2022-09-13T05:04:47;19.00;99.90
971;DHT22;28939;45.540;-122.632;2022-09-13T05:07:18;19.00;99.90
971;DHT22;28939;45.540;-122.632;2022-09-13T05:09:51;19.00;99.90
971;DHT22;28939;45.540;-122.632;2022-09-13T05:12:21;19.00;99.90
971;DHT22;28939;45.540;-122.632;2022-09-13T05:14:52;18.90;99.90
971;DHT22;28939;45.540;-122.632;2022-09-13T05:17:23;19.00;99.90
971;DHT22;28939;45.540;-122.632;2022-09-13T05:19:54;19.00;99.90
971;DHT22;28939;45.540;-122.632;2022-09-13T05:22:25;19.00;99.90
971;DHT22;28939;45.540;-122.632;2022-09-13T05:24:58;18.90;99.90
971;DHT22;28939;45.540;-122.632;2022-09-13T05:27:28;18.80;99.90
971;DHT22;28939;45.540;-122.632;2022-09-13T05:29:59;18.80;99.90
971;DHT22;28939;45.540;-122.632;2022-09-13T05:32:32;18.90;99.90
971;DHT22;28939;45.540;-122.632;2022-09-13T05:35:03;18.90;99.90
971;DHT22;28939;45.540;-122.632;2022-09-13T05:37:34;18.80;99.90
971;DHT22;28939;45.540;-122.632;2022-09-13T05:40:08;18.80;99.90
971;DHT22;28939;45.540;-122.632;2022-09-13T05:42:39;18.80;99.90
971;DHT22;28939;45.540;-122.632;2022-09-13T05:45:10;18.70;99.90
971;DHT22;28939;45.540;-122.632;2022-09-13T05:47:41;18.70;99.90
971;DHT22;28939;45.540;-122.632;2022-09-13T05:50:13;18.60;99.90
971;DHT22;28939;45.540;-122.632;2022-09-13T05:53:03;18.60;99.90
971;DHT22;28939;45.540;-122.632;2022-09-13T05:55:36;18.50;99.90
971;DHT22;28939;45.540;-122.632;2022-09-13T05:58:07;18.60;99.90
971;DHT22;28939;45.540;-122.632;2022-09-13T06:00:38;18.50;99.90
971;DHT22;28939;45.540;-122.632;2022-09-13T06:03:09;18.60;99.90
971;DHT22;28939;45.540;-122.632;2022-09-13T06:05:39;18.60;99.90
971;DHT22;28939;45.540;-122.632;2022-09-13T06:08:10;18.60;99.90
971;DHT22;28939;45.540;-122.632;2022-09-13T06:10:43;18.60;99.90
971;DHT22;28939;45.540;-122.632;2022-09-13T06:13:13;18.60;99.90
971;DHT22;28939;45.540;-122.632;2022-09-13T06:15:44;18.70;99.90
971;DHT22;28939;45.540;-122.632;2022-09-13T06:18:15;18.80;99.90
971;DHT22;28939;45.540;-122.632;2022-09-13T06:20:47;18.70;99.90
971;DHT22;28939;45.540;-122.632;2022-09-13T06:23:18;18.70;99.90
971;DHT22;28939;45.540;-122.632;2022-09-13T06:25:58;18.70;99.90
971;DHT22;28939;45.540;-122.632;2022-09-13T06:28:29;18.70;99.90
971;DHT22;28939;45.540;-122.632;2022-09-13T06:31:05;18.70;99.90
971;DHT22;28939;45.540;-122.632;2022-09-13T06:33:38;18.80;99.90
971;DHT22;28939;45.540;-122.632;2022-09-13T06:36:11;18.90;99.90
971;DHT22;28939;45.540;-122.632;2022-09-13T06:38:42;18.90;99.90
971;DHT22;28939;45.540;-122.632;2022-09-13T06:41:16;18.80;99.90
971;DHT22;28939;45.540;-122.632;2022-09-13T06:43:51;18.70;99.90
971;DHT22;28939;45.540;-122.632;2022-09-13T06:46:22;18.70;99.90
971;DHT22;28939;45.540;-122.632;2022-09-13T06:48:53;18.70;99.90
971;DHT22;28939;45.540;-122.632;2022-09-13T06:51:25;18.70;99.90
971;DHT22;28939;45.540;-122.632;2022-09-13T06:53:57;18.70;99.90
971;DHT22;28939;45.540;-122.632;2022-09-13T06:56:31;18.70;99.90
971;DHT22;28939;45.540;-122.632;2022-09-13T06:59:04;18.70;99.90
971;DHT22;28939;45.540;-122.632;2022-09-13T07:01:36;18.70;99.90
971;DHT22;28939;45.540;-122.632;2022-09-13T07:04:09;18.80;99.90
971;DHT22;28939;45.540;-122.632;2022-09-13T07:06:42;18.70;99.90
971;DHT22;28939;45.540;-122.632;2022-09-13T07:09:14;18.80;99.90
971;DHT22;28939;45.540;-122.632;2022-09-13T07:11:48;18.80;99.90
971;DHT22;28939;45.540;-122.632;2022-09-13T07:14:21;18.80;99.90
971;DHT22;28939;45.540;-122.632;2022-09-13T07:16:53;18.70;99.90
971;DHT22;28939;45.540;-122.632;2022-09-13T07:19:25;18.60;99.90
971;DHT22;28939;45.540;-122.632;2022-09-13T07:21:56;18.60;99.90
971;DHT22;28939;45.540;-122.632;2022-09-13T07:24:27;18.70;99.90
971;DHT22;28939;45.540;-122.632;2022-09-13T07:27:00;18.70;99.90
971;DHT22;28939;45.540;-122.632;2022-09-13T07:29:30;18.60;99.90
971;DHT22;28939;45.540;-122.632;2022-09-13T07:32:01;18.50;99.90
971;DHT22;28939;45.540;-122.632;2022-09-13T07:34:32;18.60;99.90
971;DHT22;28939;45.540;-122.632;2022-09-13T07:37:03;18.60;99.90
971;DHT22;28939;45.540;-122.632;2022-09-13T07:39:34;18.60;99.90
971;DHT22;28939;45.540;-122.632;2022-09-13T07:42:06;18.50;99.90
971;DHT22;28939;45.540;-122.632;2022-09-13T07:44:37;18.50;99.90
971;DHT22;28939;45.540;-122.632;2022-09-13T07:47:08;18.50;99.90
971;DHT22;28939;45.540;-122.632;2022-09-13T07:49:39;18.50;99.90
971;DHT22;28939;45.540;-122.632;2022-09-13T07:52:10;18.50;99.90
971;DHT22;28939;45.540;-122.632;2022-09-13T07:54:40;18.50;99.90
971;DHT22;28939;45.540;-122.632;2022-09-13T07:57:13;18.50;99.90
971;DHT22;28939;45.540;-122.632;2022-09-13T07:59:44;18.60;99.90
971;DHT22;28939;45.540;-122.632;2022-09-13T08:02:16;18.60;99.90
971;DHT22;28939;45.540;-122.632;2022-09-13T08:04:47;18.60;99.90
971;DHT22;28939;45.540;-122.632;2022-09-13T08:07:18;18.50;99.90
971;DHT22;28939;45.540;-122.632;2022-09-13T08:09:49;18.50;99.90
971;DHT22;28939;45.540;-122.632;2022-09-13T08:12:21;18.50;99.90
971;DHT22;28939;45.540;-122.632;2022-09-13T08:14:52;18.50;99.90
971;DHT22;28939;45.540;-122.632;2022-09-13T08:17:23;18.50;99.90
971;DHT22;28939;45.540;-122.632;2022-09-13T08:19:54;18.50;99.90
971;DHT22;28939;45.540;-122.632;2022-09-13T08:22:25;18.50;99.90
971;DHT22;28939;45.540;-122.632;2022-09-13T08:24:55;18.40;99.90
971;DHT22;28939;45.540;-122.632;2022-09-13T08:27:28;18.40;99.90
971;DHT22;28939;45.540;-122.632;2022-09-13T08:29:59;18.50;99.90
971;DHT22;28939;45.540;-122.632;2022-09-13T08:32:30;18.50;99.90
971;DHT22;28939;45.540;-122.632;2022-09-13T08:35:00;18.40;99.90
971;DHT22;28939;45.540;-122.632;2022-09-13T08:37:32;18.50;99.90
971;DHT22;28939;45.540;-122.632;2022-09-13T08:40:04;18.50;99.90
971;DHT22;28939;45.540;-122.632;2022-09-13T08:42:48;18.60;99.90
971;DHT22;28939;45.540;-122.632;2022-09-13T08:45:21;18.60;99.90
971;DHT22;28939;45.540;-122.632;2022-09-13T08:47:56;18.60;99.90
971;DHT22;28939;45.540;-122.632;2022-09-13T08:50:30;18.60;99.90
971;DHT22;28939;45.540;-122.632;2022-09-13T08:53:11;18.60;99.90
971;DHT22;28939;45.540;-122.632;2022-09-13T08:55:57;18.60;99.90
971;DHT22;28939;45.540;-122.632;2022-09-13T08:58:50;18.50;99.90
971;DHT22;28939;45.540;-122.632;2022-09-13T09:01:35;18.40;99.90
971;DHT22;28939;45.540;-122.632;2022-09-13T09:04:14;18.40;99.90
971;DHT22;28939;45.540;-122.632;2022-09-13T09:07:01;18.40;99.90
971;DHT22;28939;45.540;-122.632;2022-09-13T09:09:35;18.30;99.90
971;DHT22;28939;45.540;-122.632;2022-09-13T09:12:14;18.40;99.90
971;DHT22;28939;45.540;-122.632;2022-09-13T09:14:56;18.40;99.90
971;DHT22;28939;45.540;-122.632;2022-09-13T09:17:33;18.30;99.90
971;DHT22;28939;45.540;-122.632;2022-09-13T09:20:16;18.30;99.90
971;DHT22;28939;45.540;-122.632;2022-09-13T09:22:51;18.30;99.90
971;DHT22;28939;45.540;-122.632;2022-09-13T09:25:24;18.20;99.90
971;DHT22;28939;45.540;-122.632;2022-09-13T09:27:56;18.20;99.90
971;DHT22;28939;45.540;-122.632;2022-09-13T09:30:36;18.20;99.90
971;DHT22;28939;45.540;-122.632;2022-09-13T09:33:19;18.30;99.90
971;DHT22;28939;45.540;-122.632;2022-09-13T09:35:59;18.30;99.90
971;DHT22;28939;45.540;-122.632;2022-09-13T09:38:36;18.30;99.90
971;DHT22;28939;45.540;-122.632;2022-09-13T09:41:17;18.30;99.90
971;DHT22;28939;45.540;-122.632;2022-09-13T09:43:58;18.20;99.90
971;DHT22;28939;45.540;-122.632;2022-09-13T09:46:33;18.20;99.90
971;DHT22;28939;45.540;-122.632;2022-09-13T09:49:13;18.20;99.90
971;DHT22;28939;45.540;-122.632;2022-09-13T09:51:59;18.20;99.90
971;DHT22;28939;45.540;-122.632;2022-09-13T09:54:31;18.10;99.90
971;DHT22;28939;45.540;-122.632;2022-09-13T09:57:02;18.10;99.90
971;DHT22;28939;45.540;-122.632;2022-09-13T09:59:34;18.10;99.90
971;DHT22;28939;45.540;-122.632;2022-09-13T10:02:15;18.10;99.90
971;DHT22;28939;45.540;-122.632;2022-09-13T10:04:55;18.30;99.90
971;DHT22;28939;45.540;-122.632;2022-09-13T10:07:29;18.20;99.90
971;DHT22;28939;45.540;-122.632;2022-09-13T10:10:02;18.20;99.90
971;DHT22;28939;45.540;-122.632;2022-09-13T10:12:37;18.20;99.90
971;DHT22;28939;45.540;-122.632;2022-09-13T10:15:15;18.20;99.90
971;DHT22;28939;45.540;-122.632;2022-09-13T10:18:13;18.10;99.90
971;DHT22;28939;45.540;-122.632;2022-09-13T10:21:06;18.10;99.90
971;DHT22;28939;45.540;-122.632;2022-09-13T10:23:37;18.20;99.90
971;DHT22;28939;45.540;-122.632;2022-09-13T10:26:10;18.20;99.90
971;DHT22;28939;45.540;-122.632;2022-09-13T10:28:44;18.20;99.90
971;DHT22;28939;45.540;-122.632;2022-09-13T10:31:18;18.10;99.90
971;DHT22;28939;45.540;-122.632;2022-09-13T10:33:57;18.10;99.90
971;DHT22;28939;45.540;-122.632;2022-09-13T10:36:31;18.20;99.90
971;DHT22;28939;45.540;-122.632;2022-09-13T10:39:20;18.20;99.90
971;DHT22;28939;45.540;-122.632;2022-09-13T10:41:54;18.30;99.90
971;DHT22;28939;45.540;-122.632;2022-09-13T10:44:33;18.20;99.90
971;DHT22;28939;45.540;-122.632;2022-09-13T10:47:19;18.20;99.90
971;DHT22;28939;45.540;-122.632;2022-09-13T10:49:54;18.20;99.90
971;DHT22;28939;45.540;-122.632;2022-09-13T10:52:28;18.10;99.90
971;DHT22;28939;45.540;-122.632;2022-09-13T10:55:33;18.20;99.90
971;DHT22;28939;45.540;-122.632;2022-09-13T10:58:21;18.20;99.90
971;DHT22;28939;45.540;-122.632;2022-09-13T11:01:18;18.20;99.90
971;DHT22;28939;45.540;-122.632;2022-09-13T11:07:42;18.10;99.90
971;DHT22;28939;45.540;-122.632;2022-09-13T11:10:19;18.10;99.90
971;DHT22;28939;45.540;-122.632;2022-09-13T11:12:58;18.10;99.90
971;DHT22;28939;45.540;-122.632;2022-09-13T11:15:44;18.10;99.90
971;DHT22;28939;45.540;-122.632;2022-09-13T11:18:33;18.10;99.90
971;DHT22;28939;45.540;-122.632;2022-09-13T11:21:17;18.00;99.90
971;DHT22;28939;45.540;-122.632;2022-09-13T11:24:09;18.00;99.90
971;DHT22;28939;45.540;-122.632;2022-09-13T11:26:50;18.00;99.90
971;DHT22;28939;45.540;-122.632;2022-09-13T11:29:36;18.00;99.90
971;DHT22;28939;45.540;-122.632;2022-09-13T11:32:19;18.00;99.90
971;DHT22;28939;45.540;-122.632;2022-09-13T11:35:13;18.00;99.90
971;DHT22;28939;45.540;-122.632;2022-09-13T11:37:53;18.00;99.90
971;DHT22;28939;45.540;-122.632;2022-09-13T11:40:38;18.00;99.90
971;DHT22;28939;45.540;-122.632;2022-09-13T11:43:35;18.00;99.90
971;DHT22;28939;45.540;-122.632;2022-09-13T11:46:16;18.00;99.90
971;DHT22;28939;45.540;-122.632;2022-09-13T11:49:13;18.00;99.90
971;DHT22;28939;45.540;-122.632;2022-09-13T11:51:55;18.00;99.90
971;DHT22;28939;45.540;-122.632;2022-09-13T11:54:50;18.10;99.90
971;DHT22;28939;45.540;-122.632;2022-09-13T11:57:28;18.00;99.90
971;DHT22;28939;45.540;-122.632;2022-09-13T12:00:03;18.00;99.90
971;DHT22;28939;45.540;-122.632;2022-09-13T12:02:41;18.00;99.90
971;DHT22;28939;45.540;-122.632;2022-09-13T12:05:16;18.00;99.90
971;DHT22;28939;45.540;-122.632;2022-09-13T12:07:54;17.90;99.90
971;DHT22;28939;45.540;-122.632;2022-09-13T12:10:31;17.90;99.90
971;DHT22;28939;45.540;-122.632;2022-09-13T12:13:08;17.80;99.90
971;DHT22;28939;45.540;-122.632;2022-09-13T12:15:41;17.80;99.90
971;DHT22;28939;45.540;-122.632;2022-09-13T12:18:15;17.90;99.90
971;DHT22;28939;45.540;-122.632;2022-09-13T12:20:50;17.90;99.90
971;DHT22;28939;45.540;-122.632;2022-09-13T12:23:29;17.90;99.90
971;DHT22;28939;45.540;-122.632;2022-09-13T12:26:04;18.00;99.90
971;DHT22;28939;45.540;-122.632;2022-09-13T12:28:41;17.90;99.90
971;DHT22;28939;45.540;-122.632;2022-09-13T12:31:16;17.80;99.90
971;DHT22;28939;45.540;-122.632;2022-09-13T12:33:48;17.90;99.90
971;DHT22;28939;45.540;-122.632;2022-09-13T12:36:36;17.80;99.90
971;DHT22;28939;45.540;-122.632;2022-09-13T12:45:38;17.70;99.90
971;DHT22;28939;45.540;-122.632;2022-09-13T12:48:22;17.70;99.90
971;DHT22;28939;45.540;-122.632;2022-09-13T12:51:06;17.70;99.90
971;DHT22;28939;45.540;-122.632;2022-09-13T12:57:02;17.70;99.90
971;DHT22;28939;45.540;-122.632;2022-09-13T12:59:58;17.70;99.90
971;DHT22;28939;45.540;-122.632;2022-09-13T13:02:35;17.80;99.90
971;DHT22;28939;45.540;-122.632;2022-09-13T13:05:19;17.80;99.90
971;DHT22;28939;45.540;-122.632;2022-09-13T13:07:52;17.80;99.90
971;DHT22;28939;45.540;-122.632;2022-09-13T13:10:27;17.80;99.90
971;DHT22;28939;45.540;-122.632;2022-09-13T13:13:13;17.70;99.90
971;DHT22;28939;45.540;-122.632;2022-09-13T13:16:00;17.70;99.90
971;DHT22;28939;45.540;-122.632;2022-09-13T13:18:44;17.70;99.90
971;DHT22;28939;45.540;-122.632;2022-09-13T13:21:34;17.70;99.90
971;DHT22;28939;45.540;-122.632;2022-09-13T13:24:43;17.70;99.90
971;DHT22;28939;45.540;-122.632;2022-09-13T13:27:41;17.70;99.90
971;DHT22;28939;45.540;-122.632;2022-09-13T13:30:40;17.70;99.90
971;DHT22;28939;45.540;-122.632;2022-09-13T13:33:20;17.70;99.90
971;DHT22;28939;45.540;-122.632;2022-09-13T13:35:53;17.70;99.90
971;DHT22;28939;45.540;-122.632;2022-09-13T13:38:51;17.70;99.90
971;DHT22;28939;45.540;-122.632;2022-09-13T13:41:50;17.70;99.90
971;DHT22;28939;45.540;-122.632;2022-09-13T13:50:30;17.60;99.90
971;DHT22;28939;45.540;-122.632;2022-09-13T13:53:31;17.70;99.90
971;DHT22;28939;45.540;-122.632;2022-09-13T13:56:15;17.80;99.90
971;DHT22;28939;45.540;-122.632;2022-09-13T13:58:49;17.70;99.90
971;DHT22;28939;45.540;-122.632;2022-09-13T14:01:24;17.60;99.90
971;DHT22;28939;45.540;-122.632;2022-09-13T14:07:41;17.70;99.90
971;DHT22;28939;45.540;-122.632;2022-09-13T14:10:23;17.70;99.90
971;DHT22;28939;45.540;-122.632;2022-09-13T14:13:11;17.60;99.90
971;DHT22;28939;45.540;-122.632;2022-09-13T14:15:52;17.60;99.90
971;DHT22;28939;45.540;-122.632;2022-09-13T14:18:49;17.60;99.90
971;DHT22;28939;45.540;-122.632;2022-09-13T14:21:23;17.60;99.90
971;DHT22;28939;45.540;-122.632;2022-09-13T14:24:10;17.50;99.90
971;DHT22;28939;45.540;-122.632;2022-09-13T14:26:47;17.50;99.90
971;DHT22;28939;45.540;-122.632;2022-09-13T14:29:20;17.50;99.90
971;DHT22;28939;45.540;-122.632;2022-09-13T14:32:09;17.60;99.90
971;DHT22;28939;45.540;-122.632;2022-09-13T14:34:52;17.60;99.90
971;DHT22;28939;45.540;-122.632;2022-09-13T14:37:27;17.70;99.90
971;DHT22;28939;45.540;-122.632;2022-09-13T14:40:00;17.80;99.90
971;DHT22;28939;45.540;-122.632;2022-09-13T14:42:41;17.80;99.90
971;DHT22;28939;45.540;-122.632;2022-09-13T14:45:13;17.90;99.90
971;DHT22;28939;45.540;-122.632;2022-09-13T14:47:50;17.90;99.90
971;DHT22;28939;45.540;-122.632;2022-09-13T14:50:24;18.00;99.90
971;DHT22;28939;45.540;-122.632;2022-09-13T14:52:57;18.00;99.90
971;DHT22;28939;45.540;-122.632;2022-09-13T14:55:32;18.00;99.90
971;DHT22;28939;45.540;-122.632;2022-09-13T14:58:07;18.00;99.90
971;DHT22;28939;45.540;-122.632;2022-09-13T15:00:49;18.00;99.90
971;DHT22;28939;45.540;-122.632;2022-09-13T15:03:21;18.10;99.90
971;DHT22;28939;45.540;-122.632;2022-09-13T15:05:54;18.20;99.90
971;DHT22;28939;45.540;-122.632;2022-09-13T15:08:38;18.20;99.90
971;DHT22;28939;45.540;-122.632;2022-09-13T15:11:14;18.20;99.90
971;DHT22;28939;45.540;-122.632;2022-09-13T15:13:46;18.30;99.90
971;DHT22;28939;45.540;-122.632;2022-09-13T15:16:30;18.30;99.90
971;DHT22;28939;45.540;-122.632;2022-09-13T15:19:27;18.30;99.90
971;DHT22;28939;45.540;-122.632;2022-09-13T15:22:03;18.50;99.90
971;DHT22;28939;45.540;-122.632;2022-09-13T15:24:34;18.50;99.90
971;DHT22;28939;45.540;-122.632;2022-09-13T15:27:15;18.50;99.90
971;DHT22;28939;45.540;-122.632;2022-09-13T15:29:52;18.50;99.90
971;DHT22;28939;45.540;-122.632;2022-09-13T15:32:31;18.60;99.90
971;DHT22;28939;45.540;-122.632;2022-09-13T15:35:02;18.70;99.90
971;DHT22;28939;45.540;-122.632;2022-09-13T15:37:35;18.70;99.90
971;DHT22;28939;45.540;-122.632;2022-09-13T15:40:17;18.70;99.90
971;DHT22;28939;45.540;-122.632;2022-09-13T15:42:49;18.60;99.90
971;DHT22;28939;45.540;-122.632;2022-09-13T15:45:22;18.60;99.90
971;DHT22;28939;45.540;-122.632;2022-09-13T15:47:53;18.70;99.90
971;DHT22;28939;45.540;-122.632;2022-09-13T15:50:25;18.70;99.90
971;DHT22;28939;45.540;-122.632;2022-09-13T15:52:59;18.80;99.90
971;DHT22;28939;45.540;-122.632;2022-09-13T15:55:30;18.90;99.90
971;DHT22;28939;45.540;-122.632;2022-09-13T15:58:01;18.90;99.90
971;DHT22;28939;45.540;-122.632;2022-09-13T16:00:33;18.90;99.90
971;DHT22;28939;45.540;-122.632;2022-09-13T16:03:04;19.00;99.90
971;DHT22;28939;45.540;-122.632;2022-09-13T16:05:35;19.00;99.90
971;DHT22;28939;45.540;-122.632;2022-09-13T16:08:07;19.20;99.90
971;DHT22;28939;45.540;-122.632;2022-09-13T16:10:39;19.30;99.90
971;DHT22;28939;45.540;-122.632;2022-09-13T16:13:11;19.50;99.90
971;DHT22;28939;45.540;-122.632;2022-09-13T16:15:43;19.60;99.90
971;DHT22;28939;45.540;-122.632;2022-09-13T16:18:15;19.60;99.90
971;DHT22;28939;45.540;-122.632;2022-09-13T16:20:46;19.70;99.90
971;DHT22;28939;45.540;-122.632;2022-09-13T16:23:17;19.70;99.90
971;DHT22;28939;45.540;-122.632;2022-09-13T16:25:48;19.80;99.90
971;DHT22;28939;45.540;-122.632;2022-09-13T16:28:20;19.80;99.90
971;DHT22;28939;45.540;-122.632;2022-09-13T16:30:53;19.80;99.90
971;DHT22;28939;45.540;-122.632;2022-09-13T16:33:24;19.80;99.90
971;DHT22;28939;45.540;-122.632;2022-09-13T16:35:55;19.90;99.90
971;DHT22;28939;45.540;-122.632;2022-09-13T16:38:29;19.90;99.90